createdAt,value
2023-04-29T00:01:37.599Z,101169.13
2023-04-29T00:04:05.213Z,101159.78
2023-04-29T00:06:32.740Z,101155.81
2023-04-29T00:09:00.028Z,101158.63
2023-04-29T00:11:27.392Z,101154.94
2023-04-29T00:13:54.713Z,101154.66
2023-04-29T00:16:21.973Z,101156.72
2023-04-29T00:18:49.342Z,101159.94
2023-04-29T00:21:16.682Z,101162.16
2023-04-29T00:23:43.905Z,101160.97
2023-04-29T00:26:11.833Z,101154.38
2023-04-29T00:28:39.817Z,101152.31
2023-04-29T00:31:07.064Z,101144.91
2023-04-29T00:33:34.413Z,101148.56
2023-04-29T00:36:02.202Z,101151.91
2023-04-29T00:38:29.597Z,101145.88
2023-04-29T00:40:57.323Z,101153.75
2023-04-29T00:43:24.652Z,101137.34
2023-04-29T00:45:52.179Z,101144.06
2023-04-29T00:48:19.410Z,101134.03
2023-04-29T00:50:46.718Z,101135.19
2023-04-29T00:53:14.286Z,101141.31
2023-04-29T00:55:42.206Z,101147.75
2023-04-29T00:58:10.685Z,101147.56
2023-04-29T01:00:38.147Z,101141.72
2023-04-29T01:03:06.091Z,101140.81
2023-04-29T01:05:33.776Z,101136.59
2023-04-29T01:08:04.576Z,101134.81
2023-04-29T01:10:36.843Z,101142.78
2023-04-29T01:13:11.855Z,101142.31
2023-04-29T01:15:48.244Z,101148.75
2023-04-29T01:18:28.128Z,101141.34
2023-04-29T01:20:57.669Z,101133.78
2023-04-29T01:23:29.007Z,101136.38
2023-04-29T01:25:57.736Z,101139.88
2023-04-29T01:28:52.361Z,101137.81
2023-04-29T01:31:35.796Z,101144.28
2023-04-29T01:34:14.352Z,101147.16
2023-04-29T01:36:44.790Z,101142.53
2023-04-29T01:39:21.740Z,101134.88
2023-04-29T01:42:14.641Z,101137.84
2023-04-29T01:44:42.739Z,101130.88
2023-04-29T01:47:13.918Z,101132.06
2023-04-29T01:49:46.908Z,101131.34
2023-04-29T01:52:14.625Z,101133.91
2023-04-29T01:54:50.707Z,101132.66
2023-04-29T01:57:19.558Z,101132.19
2023-04-29T02:00:11.663Z,101132.16
2023-04-29T02:02:45.036Z,101132.78
2023-04-29T02:05:20.400Z,101141.00
2023-04-29T02:07:55.110Z,101130.97
2023-04-29T02:10:22.652Z,101130.22
2023-04-29T02:12:54.850Z,101127.19
2023-04-29T02:15:22.168Z,101129.63
2023-04-29T02:17:49.532Z,101129.63
2023-04-29T02:20:21.194Z,101130.22
2023-04-29T02:22:48.430Z,101139.06
2023-04-29T02:25:15.817Z,101142.16
2023-04-29T02:27:43.503Z,101146.50
2023-04-29T02:30:11.772Z,101144.72
2023-04-29T02:32:40.969Z,101147.84
2023-04-29T02:35:08.649Z,101141.69
2023-04-29T02:37:35.872Z,101147.97
2023-04-29T02:40:03.641Z,101146.75
2023-04-29T02:42:31.445Z,101145.78
2023-04-29T02:45:01.682Z,101141.75
2023-04-29T02:47:29.135Z,101146.16
2023-04-29T02:49:56.602Z,101149.22
2023-04-29T02:52:23.857Z,101142.66
2023-04-29T02:54:51.434Z,101150.94
2023-04-29T02:57:18.794Z,101154.22
2023-04-29T02:59:46.190Z,101141.56
2023-04-29T03:02:13.697Z,101144.28
2023-04-29T03:04:41.724Z,101150.75
2023-04-29T03:07:09.141Z,101149.50
2023-04-29T03:09:37.297Z,101148.72
2023-04-29T03:12:04.952Z,101148.53
2023-04-29T03:14:32.174Z,101150.09
2023-04-29T03:16:59.503Z,101152.00
2023-04-29T03:19:26.800Z,101158.47
2023-04-29T03:21:54.224Z,101153.56
2023-04-29T03:24:22.374Z,101162.94
2023-04-29T03:26:49.681Z,101159.28
2023-04-29T03:29:19.913Z,101158.47
2023-04-29T03:31:47.668Z,101162.69
2023-04-29T03:34:15.337Z,101172.09
2023-04-29T03:36:48.850Z,101175.28
2023-04-29T03:39:16.258Z,101166.22
2023-04-29T03:41:43.612Z,101175.59
2023-04-29T03:44:11.276Z,101175.34
2023-04-29T03:46:40.056Z,101165.13
2023-04-29T03:49:07.891Z,101172.50
2023-04-29T03:51:35.218Z,101167.50
2023-04-29T03:54:10.931Z,101173.50
2023-04-29T03:56:38.395Z,101178.47
2023-04-29T03:59:05.780Z,101176.97
2023-04-29T04:01:33.454Z,101175.28
2023-04-29T04:04:01.074Z,101187.13
2023-04-29T04:06:29.130Z,101188.72
2023-04-29T04:08:56.517Z,101182.56
2023-04-29T04:11:29.298Z,101188.72
2023-04-29T04:14:05.797Z,101191.47
2023-04-29T04:16:33.062Z,101176.88
2023-04-29T04:19:00.633Z,101181.75
2023-04-29T04:21:28.970Z,101191.84
2023-04-29T04:24:01.814Z,101197.25
2023-04-29T04:26:30.676Z,101196.56
2023-04-29T04:29:10.504Z,101203.50
2023-04-29T04:32:13.264Z,101204.84
2023-04-29T04:34:40.647Z,101208.22
2023-04-29T04:37:08.266Z,101205.44
2023-04-29T04:39:36.623Z,101210.72
2023-04-29T04:42:04.264Z,101211.25
2023-04-29T04:44:34.354Z,101221.53
2023-04-29T04:47:11.885Z,101216.66
2023-04-29T04:49:53.168Z,101224.31
2023-04-29T04:52:21.941Z,101218.97
2023-04-29T04:54:57.207Z,101229.47
2023-04-29T04:57:27.289Z,101233.28
2023-04-29T04:59:57.049Z,101236.66
2023-04-29T05:02:24.923Z,101240.34
2023-04-29T05:04:52.390Z,101232.44
2023-04-29T05:07:21.474Z,101237.97
2023-04-29T05:10:00.584Z,101246.31
2023-04-29T05:12:30.974Z,101252.72
2023-04-29T05:14:59.619Z,101251.91
2023-04-29T05:17:28.595Z,101250.09
2023-04-29T05:19:56.755Z,101259.69
2023-04-29T05:22:24.550Z,101267.72
2023-04-29T05:24:54.201Z,101259.72
2023-04-29T05:27:22.319Z,101270.56
2023-04-29T05:29:49.853Z,101274.84
2023-04-29T05:32:18.365Z,101275.06
2023-04-29T05:34:46.545Z,101284.34
2023-04-29T05:37:14.016Z,101286.88
2023-04-29T05:39:58.746Z,101309.19
2023-04-29T05:42:26.320Z,101298.56
2023-04-29T05:44:53.942Z,101303.81
2023-04-29T05:47:21.575Z,101304.41
2023-04-29T05:49:49.391Z,101303.22
2023-04-29T05:52:16.851Z,101303.91
2023-04-29T05:54:47.091Z,101307.50
2023-04-29T05:57:14.382Z,101315.13
2023-04-29T05:59:41.674Z,101312.69
2023-04-29T06:02:11.025Z,101324.88
2023-04-29T06:04:41.784Z,101320.44
2023-04-29T06:07:28.751Z,101321.69
2023-04-29T06:10:01.314Z,101330.59
2023-04-29T06:12:30.288Z,101323.19
2023-04-29T06:14:59.082Z,101328.47
2023-04-29T06:17:29.368Z,101326.97
2023-04-29T06:19:56.791Z,101323.03
2023-04-29T06:22:24.644Z,101336.97
2023-04-29T06:24:54.411Z,101334.72
2023-04-29T06:27:40.390Z,101333.97
2023-04-29T06:30:08.623Z,101332.44
2023-04-29T06:32:36.192Z,101338.88
2023-04-29T06:35:04.146Z,101334.94
2023-04-29T06:37:49.531Z,101340.69
2023-04-29T06:40:32.656Z,101342.34
2023-04-29T06:43:06.254Z,101337.41
2023-04-29T06:45:53.778Z,101341.84
2023-04-29T06:48:23.744Z,101346.22
2023-04-29T06:50:52.212Z,101347.41
2023-04-29T06:53:19.914Z,101340.81
2023-04-29T06:55:47.579Z,101347.41
2023-04-29T06:58:18.801Z,101349.38
2023-04-29T07:00:50.986Z,101347.19
2023-04-29T07:03:19.023Z,101353.97
2023-04-29T07:05:46.662Z,101355.25
2023-04-29T07:08:14.722Z,101356.00
2023-04-29T07:10:42.012Z,101358.88
2023-04-29T07:13:09.300Z,101357.03
2023-04-29T07:15:36.989Z,101363.19
2023-04-29T07:18:05.590Z,101367.47
2023-04-29T07:20:33.528Z,101367.88
2023-04-29T07:23:00.992Z,101368.19
2023-04-29T07:25:29.492Z,101371.06
2023-04-29T07:27:57.088Z,101373.50
2023-04-29T07:30:26.200Z,101381.69
2023-04-29T07:32:53.893Z,101371.06
2023-04-29T07:35:21.287Z,101376.91
2023-04-29T07:37:49.241Z,101385.69
2023-04-29T07:40:16.748Z,101389.53
2023-04-29T07:42:44.356Z,101392.03
2023-04-29T07:45:13.917Z,101382.38
2023-04-29T07:47:41.529Z,101388.03
2023-04-29T07:50:09.213Z,101389.22
2023-04-29T07:52:36.708Z,101389.66
2023-04-29T07:55:04.468Z,101393.03
2023-04-29T07:57:31.993Z,101388.63
2023-04-29T07:59:59.705Z,101388.97
2023-04-29T08:02:27.160Z,101394.97
2023-04-29T08:04:56.253Z,101397.22
2023-04-29T08:07:24.239Z,101397.97
2023-04-29T08:09:52.079Z,101400.47
2023-04-29T08:12:19.366Z,101399.25
2023-04-29T08:14:48.113Z,101399.91
2023-04-29T08:17:15.623Z,101398.34
2023-04-29T08:19:43.107Z,101395.28
2023-04-29T08:22:12.322Z,101400.91
2023-04-29T08:24:39.597Z,101393.13
2023-04-29T08:27:07.962Z,101399.16
2023-04-29T08:29:35.264Z,101400.50
2023-04-29T08:32:03.165Z,101404.78
2023-04-29T08:34:31.619Z,101403.97
2023-04-29T08:36:58.866Z,101409.06
2023-04-29T08:39:26.181Z,101403.69
2023-04-29T08:41:54.850Z,101409.59
2023-04-29T08:44:22.536Z,101411.72
2023-04-29T08:46:50.293Z,101416.22
2023-04-29T08:49:17.693Z,101408.91
2023-04-29T08:51:45.448Z,101409.66
2023-04-29T08:54:12.647Z,101409.78
2023-04-29T08:56:40.420Z,101415.31
2023-04-29T08:59:09.855Z,101412.41
2023-04-29T09:01:38.441Z,101417.97
2023-04-29T09:04:08.838Z,101410.13
2023-04-29T09:06:36.246Z,101421.19
2023-04-29T09:09:04.274Z,101416.09
2023-04-29T09:11:32.308Z,101424.53
2023-04-29T09:14:01.537Z,101421.94
2023-04-29T09:16:29.267Z,101421.38
2023-04-29T09:18:57.011Z,101430.38
2023-04-29T09:21:28.551Z,101430.25
2023-04-29T09:23:58.018Z,101423.91
2023-04-29T09:26:26.035Z,101434.31
2023-04-29T09:29:18.272Z,101432.19
2023-04-29T09:31:46.361Z,101431.06
2023-04-29T09:34:14.550Z,101435.41
2023-04-29T09:36:48.967Z,101431.09
2023-04-29T09:39:17.814Z,101437.41
2023-04-29T09:41:54.275Z,101436.47
2023-04-29T09:44:24.651Z,101431.84
2023-04-29T09:47:09.108Z,101434.13
2023-04-29T09:49:40.900Z,101433.59
2023-04-29T09:52:13.468Z,101435.53
2023-04-29T09:54:41.961Z,101441.19
2023-04-29T09:57:11.664Z,101439.47
2023-04-29T09:59:40.655Z,101436.78
2023-04-29T10:02:15.684Z,101443.16
2023-04-29T10:04:46.070Z,101436.78
2023-04-29T10:07:17.671Z,101432.38
2023-04-29T10:09:47.381Z,101440.47
2023-04-29T10:12:20.808Z,101438.47
2023-04-29T10:14:55.277Z,101442.75
2023-04-29T10:17:53.160Z,101435.69
2023-04-29T10:20:24.867Z,101430.78
2023-04-29T10:22:54.859Z,101434.19
2023-04-29T10:25:24.548Z,101432.50
2023-04-29T10:27:54.743Z,101427.25
2023-04-29T10:30:22.672Z,101428.78
2023-04-29T10:32:52.776Z,101426.06
2023-04-29T10:35:25.766Z,101433.94
2023-04-29T10:37:53.781Z,101436.13
2023-04-29T10:40:36.542Z,101431.50
2023-04-29T10:43:04.744Z,101444.03
2023-04-29T10:45:35.012Z,101449.28
2023-04-29T10:48:02.874Z,101439.16
2023-04-29T10:50:30.579Z,101449.16
2023-04-29T10:52:58.771Z,101443.63
2023-04-29T10:55:26.276Z,101441.44
2023-04-29T10:57:56.605Z,101444.56
2023-04-29T11:00:28.864Z,101448.69
2023-04-29T11:03:00.904Z,101441.31
2023-04-29T11:05:33.587Z,101444.00
2023-04-29T11:08:12.762Z,101446.06
2023-04-29T11:10:43.994Z,101453.06
2023-04-29T11:13:29.283Z,101447.22
2023-04-29T11:16:09.208Z,101453.25
2023-04-29T11:18:37.994Z,101447.28
2023-04-29T11:21:08.382Z,101454.78
2023-04-29T11:23:36.535Z,101457.91
2023-04-29T11:26:04.082Z,101451.19
2023-04-29T11:28:32.556Z,101452.13
2023-04-29T11:31:00.457Z,101459.44
2023-04-29T11:33:28.266Z,101462.06
2023-04-29T11:35:56.429Z,101457.69
2023-04-29T11:38:30.498Z,101454.75
2023-04-29T11:40:58.362Z,101453.91
2023-04-29T11:43:25.944Z,101453.59
2023-04-29T11:45:53.942Z,101459.03
2023-04-29T11:48:22.751Z,101453.81
2023-04-29T11:50:55.822Z,101452.34
2023-04-29T11:53:26.972Z,101451.53
2023-04-29T11:55:55.041Z,101448.59
2023-04-29T11:58:23.046Z,101440.44
2023-04-29T12:00:51.900Z,101428.97
2023-04-29T12:03:21.138Z,101427.94
2023-04-29T12:05:49.593Z,101437.16
2023-04-29T12:08:22.561Z,101437.78
2023-04-29T12:10:50.828Z,101430.16
2023-04-29T12:13:19.045Z,101430.19
2023-04-29T12:15:47.637Z,101431.19
2023-04-29T12:18:15.248Z,101432.31
2023-04-29T12:20:42.639Z,101428.28
2023-04-29T12:23:13.362Z,101426.25
2023-04-29T12:25:44.117Z,101443.16
2023-04-29T12:28:14.936Z,101442.50
2023-04-29T12:30:44.400Z,101437.31
2023-04-29T12:33:19.856Z,101432.75
2023-04-29T12:35:47.360Z,101443.50
2023-04-29T12:38:17.459Z,101434.13
2023-04-29T12:40:44.959Z,101433.25
2023-04-29T12:43:12.453Z,101434.31
2023-04-29T12:45:39.790Z,101438.34
2023-04-29T12:48:12.365Z,101443.47
2023-04-29T12:50:51.479Z,101442.09
2023-04-29T12:53:18.981Z,101438.13
2023-04-29T12:55:46.322Z,101431.66
2023-04-29T12:58:13.791Z,101435.28
2023-04-29T13:00:41.216Z,101439.94
2023-04-29T13:03:08.703Z,101437.03
2023-04-29T13:05:36.169Z,101432.81
2023-04-29T13:08:06.032Z,101425.06
2023-04-29T13:10:33.341Z,101418.22
2023-04-29T13:13:00.676Z,101426.56
2023-04-29T13:15:28.265Z,101428.19
2023-04-29T13:17:55.797Z,101429.84
2023-04-29T13:20:23.092Z,101432.41
2023-04-29T13:22:50.945Z,101427.16
2023-04-29T13:25:18.741Z,101431.88
2023-04-29T13:27:46.055Z,101421.50
2023-04-29T13:30:13.815Z,101423.91
2023-04-29T13:32:46.300Z,101423.59
2023-04-29T13:35:16.774Z,101422.31
2023-04-29T13:37:44.014Z,101426.41
2023-04-29T13:40:19.765Z,101425.31
2023-04-29T13:42:50.608Z,101425.19
2023-04-29T13:45:24.268Z,101433.41
2023-04-29T13:48:07.214Z,101416.72
2023-04-29T13:53:41.253Z,101413.72
2023-04-29T14:03:31.467Z,101406.50
2023-04-29T14:06:01.798Z,101412.31
2023-04-29T14:08:29.066Z,101414.00
2023-04-29T14:10:56.921Z,101409.25
2023-04-29T14:13:24.287Z,101403.22
2023-04-29T14:15:51.879Z,101408.94
2023-04-29T14:18:19.226Z,101407.66
2023-04-29T14:20:46.700Z,101410.22
2023-04-29T14:23:13.964Z,101425.75
2023-04-29T14:25:41.190Z,101404.28
2023-04-29T14:28:08.741Z,101402.16
2023-04-29T14:30:36.042Z,101390.19
2023-04-29T14:33:03.429Z,101406.34
2023-04-29T14:35:31.672Z,101396.28
2023-04-29T14:37:58.890Z,101391.81
2023-04-29T14:40:26.221Z,101392.44
2023-04-29T14:42:53.495Z,101393.00
2023-04-29T14:45:20.748Z,101400.94
2023-04-29T14:47:48.168Z,101406.59
2023-04-29T14:50:16.279Z,101410.06
2023-04-29T14:52:43.659Z,101401.84
2023-04-29T14:55:11.684Z,101392.25
2023-04-29T14:57:38.946Z,101395.09
2023-04-29T15:00:08.194Z,101395.97
2023-04-29T15:02:35.577Z,101390.22
2023-04-29T15:05:04.204Z,101400.38
2023-04-29T15:07:32.422Z,101410.16
2023-04-29T15:09:59.884Z,101399.91
2023-04-29T15:12:27.213Z,101395.22
2023-04-29T15:14:54.620Z,101404.13
2023-04-29T15:17:22.239Z,101405.03
2023-04-29T15:19:49.631Z,101392.97
2023-04-29T15:22:16.859Z,101407.34
2023-04-29T15:24:44.213Z,101393.41
2023-04-29T15:27:11.571Z,101401.56
2023-04-29T15:29:39.106Z,101396.66
2023-04-29T15:32:06.534Z,101399.97
2023-04-29T15:34:33.869Z,101386.63
2023-04-29T15:37:01.278Z,101393.16
2023-04-29T15:39:28.511Z,101395.31
2023-04-29T15:41:55.800Z,101393.31
2023-04-29T15:44:23.183Z,101399.91
2023-04-29T15:46:50.484Z,101395.56
2023-04-29T15:49:18.324Z,101397.06
2023-04-29T15:51:45.597Z,101390.22
2023-04-29T15:54:12.796Z,101403.16
2023-04-29T15:56:40.117Z,101394.00
2023-04-29T15:59:07.548Z,101397.00
2023-04-29T16:01:36.574Z,101399.56
2023-04-29T16:04:04.406Z,101399.25
2023-04-29T16:06:32.773Z,101403.47
2023-04-29T16:09:00.643Z,101398.88
2023-04-29T16:11:27.910Z,101399.84
2023-04-29T16:13:55.187Z,101403.78
2023-04-29T16:16:23.598Z,101404.94
2023-04-29T16:18:52.374Z,101399.22
2023-04-29T16:21:19.642Z,101400.38
2023-04-29T16:23:47.056Z,101402.09
2023-04-29T16:26:14.396Z,101388.69
2023-04-29T16:28:41.851Z,101390.53
2023-04-29T16:31:12.943Z,101382.50
2023-04-29T16:33:40.717Z,101393.56
2023-04-29T16:36:08.006Z,101396.56
2023-04-29T16:38:35.300Z,101395.84
2023-04-29T16:41:02.781Z,101392.19
2023-04-29T16:43:30.038Z,101400.22
2023-04-29T16:45:57.871Z,101403.28
2023-04-29T16:48:25.276Z,101403.16
2023-04-29T16:50:52.484Z,101392.97
2023-04-29T16:53:19.740Z,101398.53
2023-04-29T16:55:47.041Z,101401.69
2023-04-29T16:58:14.243Z,101409.63
2023-04-29T17:00:41.695Z,101404.03
2023-04-29T17:03:09.684Z,101404.59
2023-04-29T17:05:37.581Z,101412.50
2023-04-29T17:08:05.051Z,101409.91
2023-04-29T17:10:32.263Z,101404.16
2023-04-29T17:12:59.625Z,101411.50
2023-04-29T17:15:26.890Z,101404.53
2023-04-29T17:17:55.714Z,101407.28
2023-04-29T17:20:23.252Z,101408.06
2023-04-29T17:22:50.894Z,101409.06
2023-04-29T17:25:18.126Z,101416.06
2023-04-29T17:27:46.068Z,101414.97
2023-04-29T17:30:13.584Z,101422.63
2023-04-29T17:32:41.436Z,101430.97
2023-04-29T17:35:09.548Z,101425.91
2023-04-29T17:37:36.904Z,101427.19
2023-04-29T17:40:05.018Z,101436.19
2023-04-29T17:42:32.473Z,101424.09
2023-04-29T17:44:59.724Z,101429.47
2023-04-29T17:47:27.237Z,101434.28
2023-04-29T17:49:54.991Z,101433.50
2023-04-29T17:52:22.677Z,101438.72
2023-04-29T17:54:50.006Z,101439.34
2023-04-29T17:57:17.497Z,101436.41
2023-04-29T17:59:47.195Z,101445.38
2023-04-29T18:02:14.649Z,101441.16
2023-04-29T18:04:42.048Z,101443.31
2023-04-29T18:07:09.279Z,101437.50
2023-04-29T18:09:36.526Z,101443.72
2023-04-29T18:12:03.789Z,101447.88
2023-04-29T18:14:31.679Z,101446.41
2023-04-29T18:17:01.039Z,101451.09
2023-04-29T18:19:28.886Z,101455.31
2023-04-29T18:21:59.052Z,101463.31
2023-04-29T18:24:26.328Z,101465.81
2023-04-29T18:26:53.583Z,101483.03
2023-04-29T18:29:20.984Z,101466.59
2023-04-29T18:31:48.461Z,101465.22
2023-04-29T18:34:16.038Z,101461.88
2023-04-29T18:36:43.225Z,101474.31
2023-04-29T18:39:10.545Z,101477.78
2023-04-29T18:41:37.804Z,101490.31
2023-04-29T18:44:05.317Z,101481.81
2023-04-29T18:46:32.730Z,101479.66
2023-04-29T18:49:00.125Z,101473.94
2023-04-29T18:51:28.281Z,101486.84
2023-04-29T18:53:55.642Z,101486.53
2023-04-29T18:56:23.406Z,101490.06
2023-04-29T18:58:50.940Z,101480.66
2023-04-29T19:01:18.697Z,101480.78
2023-04-29T19:03:46.855Z,101482.25
2023-04-29T19:06:14.271Z,101494.50
2023-04-29T19:08:41.728Z,101489.25
2023-04-29T19:11:09.092Z,101491.88
2023-04-29T19:13:36.396Z,101500.66
2023-04-29T19:16:03.991Z,101505.34
2023-04-29T19:18:31.314Z,101503.31
2023-04-29T19:20:58.648Z,101502.06
2023-04-29T19:23:25.878Z,101503.63
2023-04-29T19:25:53.257Z,101508.84
2023-04-29T19:28:20.856Z,101516.81
2023-04-29T19:30:48.275Z,101514.50
2023-04-29T19:33:15.699Z,101521.19
2023-04-29T19:35:42.967Z,101526.72
2023-04-29T19:38:11.144Z,101524.16
2023-04-29T19:40:39.139Z,101531.78
2023-04-29T19:43:06.417Z,101529.09
2023-04-29T19:45:35.072Z,101535.72
2023-04-29T19:48:03.074Z,101540.47
2023-04-29T19:50:30.577Z,101547.75
2023-04-29T19:52:58.641Z,101546.00
2023-04-29T19:55:26.323Z,101539.84
2023-04-29T19:57:53.871Z,101545.84
2023-04-29T20:00:21.317Z,101552.34
2023-04-29T20:02:50.900Z,101554.03
2023-04-29T20:05:19.596Z,101557.81
2023-04-29T20:07:46.901Z,101567.81
2023-04-29T20:10:14.505Z,101568.56
2023-04-29T20:12:42.486Z,101562.13
2023-04-29T20:15:10.174Z,101566.91
2023-04-29T20:17:37.707Z,101562.69
2023-04-29T20:20:09.038Z,101567.63
2023-04-29T20:22:36.529Z,101574.88
2023-04-29T20:25:04.384Z,101572.94
2023-04-29T20:27:32.115Z,101569.22
2023-04-29T20:29:59.509Z,101569.31
2023-04-29T20:32:27.254Z,101576.13
2023-04-29T20:34:54.663Z,101576.50
2023-04-29T20:37:22.022Z,101587.78
2023-04-29T20:39:49.256Z,101595.16
2023-04-29T20:42:16.922Z,101593.00
2023-04-29T20:44:44.459Z,101591.88
2023-04-29T20:47:12.510Z,101595.25
2023-04-29T20:49:39.812Z,101590.13
2023-04-29T20:52:07.308Z,101590.44
2023-04-29T20:54:35.268Z,101587.69
2023-04-29T20:57:05.492Z,101584.09
2023-04-29T20:59:33.791Z,101585.41
2023-04-29T21:02:01.239Z,101593.16
2023-04-29T21:04:28.666Z,101586.66
2023-04-29T21:06:56.335Z,101583.47
2023-04-29T21:09:23.631Z,101586.34
2023-04-29T21:11:51.197Z,101586.84
2023-04-29T21:14:18.982Z,101588.38
2023-04-29T21:16:46.453Z,101579.97
2023-04-29T21:19:13.834Z,101580.59
2023-04-29T21:21:41.064Z,101591.44
2023-04-29T21:24:08.841Z,101584.50
2023-04-29T21:26:36.168Z,101588.47
2023-04-29T21:29:03.970Z,101579.72
2023-04-29T21:31:31.462Z,101584.81
2023-04-29T21:33:59.433Z,101583.16
2023-04-29T21:36:26.884Z,101594.22
2023-04-29T21:38:54.767Z,101587.28
2023-04-29T21:41:26.623Z,101590.97
2023-04-29T21:43:58.519Z,101587.78
2023-04-29T21:46:27.849Z,101588.59
2023-04-29T21:48:57.609Z,101587.31
2023-04-29T21:51:25.281Z,101583.34
2023-04-29T21:53:52.533Z,101585.59
2023-04-29T21:56:19.900Z,101583.47
2023-04-29T21:58:47.217Z,101572.94
2023-04-29T22:01:27.124Z,101580.28
2023-04-29T22:03:56.163Z,101580.28
2023-04-29T22:06:24.064Z,101586.75
2023-04-29T22:08:51.358Z,101581.03
2023-04-29T22:11:21.827Z,101585.03
2023-04-29T22:13:49.127Z,101589.09
2023-04-29T22:16:16.777Z,101590.34
2023-04-29T22:18:44.145Z,101588.31
2023-04-29T22:21:13.078Z,101584.50
2023-04-29T22:23:40.425Z,101586.94
2023-04-29T22:26:07.569Z,101587.69
2023-04-29T22:28:35.266Z,101583.41
2023-04-29T22:31:02.579Z,101579.59
2023-04-29T22:33:29.945Z,101576.94
2023-04-29T22:35:57.212Z,101575.06
2023-04-29T22:38:24.577Z,101568.22
2023-04-29T22:40:52.133Z,101576.63
2023-04-29T22:43:19.502Z,101573.25
2023-04-29T22:45:53.913Z,101569.56
2023-04-29T22:48:21.502Z,101573.13
2023-04-29T22:50:52.590Z,101571.63
2023-04-29T22:53:20.250Z,101572.94
2023-04-29T22:55:57.495Z,101570.06
2023-04-29T22:58:25.766Z,101571.47
2023-04-29T23:00:59.181Z,101569.25
2023-04-29T23:03:27.518Z,101566.06
2023-04-29T23:06:02.398Z,101567.09
2023-04-29T23:08:29.936Z,101565.94
2023-04-29T23:10:57.219Z,101563.81
2023-04-29T23:13:24.644Z,101563.81
2023-04-29T23:15:55.331Z,101557.03
2023-04-29T23:18:22.787Z,101556.97
2023-04-29T23:20:50.019Z,101554.50
2023-04-29T23:23:17.999Z,101547.75
2023-04-29T23:25:45.927Z,101544.69
2023-04-29T23:28:13.232Z,101546.41
2023-04-29T23:30:40.878Z,101542.44
2023-04-29T23:33:08.288Z,101540.88
2023-04-29T23:35:35.687Z,101542.53
2023-04-29T23:38:02.924Z,101542.84
2023-04-29T23:40:31.615Z,101546.81
2023-04-29T23:42:59.074Z,101544.88
2023-04-29T23:45:26.378Z,101537.94
2023-04-29T23:47:53.789Z,101535.06
2023-04-29T23:50:21.012Z,101544.16
2023-04-29T23:52:48.432Z,101545.59
2023-04-29T23:55:15.735Z,101539.88
2023-04-29T23:57:43.276Z,101537.38
